KWRB/WRB METAR and TAF weather

Enter ICAO airport designator
Station Type Date Time Source
KWRB METAR 2022/01/26 06:56 UTC NOAA

KWRB 260656Z 33005KT 10SM CLR 05/05 A3007 RMK AO2A SLP186 T00450045


Station Type Date Time Source
KWRB Decoded METAR 2022/01/26 06:56 UTC NOAA

Warner Robins Air Force Base, GA, United States (KWRB) 32-38N 083-36W
Jan 26, 2022 - 01:56 AM EST / 2022.01.26 0656 UTC
Wind: from the NNW (330 degrees) at 6 MPH (5 KT):0
Visibility: 10 mile(s):0
Sky conditions: clear
Temperature: 40.1 F (4.5 C)
Dew Point: 40.1 F (4.5 C)
Relative Humidity: 100%
Pressure (altimeter): 30.07 in. Hg (1018 hPa)
ob: KWRB 260656Z 33005KT 10SM CLR 05/05 A3007 RMK AO2A SLP186 T00450045
cycle: 7

Station Type Date Time Source
KWRB TAF 2022/01/26 01:24 UTC NOAA

TAF KWRB 260100Z 2601/2707 VRB06KT 9999 SCT080 BKN120 QNH3003INS
BECMG 2603/2604 VRB06KT 9999 FEW100 SCT250 QNH3008INS
BECMG 2623/2624 VRB06KT 9999 FEW035 SCT050 QNH3021INS TX16/2621Z TN04/2612Z

Example: see airport list